createdAt,value
2018-10-21T00:00:47.447Z,27.50
2018-10-21T00:03:15.872Z,24.70
2018-10-21T00:05:44.243Z,23.00
2018-10-21T00:08:12.590Z,31.20
2018-10-21T00:10:41.009Z,25.37
2018-10-21T00:13:09.399Z,25.90
2018-10-21T00:15:37.978Z,20.10
2018-10-21T00:18:06.405Z,29.40
2018-10-21T00:20:34.772Z,25.23
2018-10-21T00:23:03.207Z,25.30
2018-10-21T00:25:31.683Z,19.27
2018-10-21T00:28:00.141Z,23.30
2018-10-21T00:30:28.735Z,32.27
2018-10-21T00:32:57.163Z,18.33
2018-10-21T00:35:25.448Z,19.37
2018-10-21T00:37:53.866Z,26.07
2018-10-21T00:40:22.252Z,17.53
2018-10-21T00:42:50.646Z,20.80
2018-10-21T00:45:19.085Z,20.20
2018-10-21T00:47:47.467Z,21.50
2018-10-21T00:50:15.857Z,23.60
2018-10-21T00:52:44.236Z,20.80
2018-10-21T00:55:12.656Z,27.07
2018-10-21T00:57:41.019Z,30.73
2018-10-21T01:00:11.251Z,26.47
2018-10-21T01:02:39.768Z,21.87
2018-10-21T01:05:08.999Z,29.97
2018-10-21T01:07:37.345Z,24.83
2018-10-21T01:10:06.898Z,26.47
2018-10-21T01:12:35.424Z,37.73
2018-10-21T01:15:03.945Z,27.40
2018-10-21T01:17:32.319Z,31.57
2018-10-21T01:20:00.783Z,26.30
2018-10-21T01:22:29.183Z,23.87
2018-10-21T01:24:57.594Z,26.70
2018-10-21T01:27:25.964Z,23.80
2018-10-21T01:29:54.322Z,33.00
2018-10-21T01:32:22.717Z,23.70
2018-10-21T01:34:51.050Z,26.33
2018-10-21T01:37:19.467Z,32.17
2018-10-21T01:40:52.171Z,28.50
2018-10-21T01:43:22.709Z,28.93
2018-10-21T01:45:51.187Z,28.60
2018-10-21T01:48:20.692Z,26.13
2018-10-21T01:50:49.115Z,22.70
2018-10-21T01:53:18.264Z,28.87
2018-10-21T01:55:46.756Z,21.57
2018-10-21T01:58:15.250Z,25.17
2018-10-21T02:00:44.028Z,25.83
2018-10-21T02:03:12.731Z,25.93
2018-10-21T02:05:42.148Z,28.73
2018-10-21T02:08:10.683Z,32.23
2018-10-21T02:10:39.209Z,31.70
2018-10-21T02:13:07.820Z,39.33
2018-10-21T02:15:37.231Z,31.80
2018-10-21T02:18:05.848Z,27.80
2018-10-21T02:20:34.438Z,25.77
2018-10-21T02:23:02.979Z,30.97
2018-10-21T02:25:31.581Z,29.90
2018-10-21T02:28:00.098Z,36.93
2018-10-21T02:30:29.668Z,31.63
2018-10-21T02:32:58.739Z,24.40
2018-10-21T02:35:27.279Z,25.13
2018-10-21T02:37:56.288Z,26.50
2018-10-21T02:41:51.105Z,23.40
2018-10-21T02:44:20.627Z,20.00
2018-10-21T02:46:49.926Z,22.20
2018-10-21T02:49:18.831Z,24.63
2018-10-21T02:51:52.615Z,24.60
2018-10-21T02:54:24.800Z,24.23
2018-10-21T02:56:53.298Z,29.57
2018-10-21T02:59:22.059Z,21.83
2018-10-21T03:01:50.462Z,22.53
2018-10-21T03:04:19.087Z,23.63
2018-10-21T03:06:47.606Z,25.77
2018-10-21T03:09:16.206Z,24.07
2018-10-21T03:11:44.597Z,26.43
2018-10-21T03:14:13.082Z,28.87
2018-10-21T03:16:41.540Z,25.13
2018-10-21T03:19:09.954Z,32.87
2018-10-21T03:21:38.437Z,33.37
2018-10-21T03:24:06.831Z,27.97
2018-10-21T03:26:35.368Z,31.10
2018-10-21T03:29:03.755Z,27.17
2018-10-21T03:31:32.142Z,27.57
2018-10-21T03:34:00.845Z,30.37
2018-10-21T03:36:29.019Z,24.00
2018-10-21T03:38:57.515Z,27.03
2018-10-21T03:41:25.910Z,26.93
2018-10-21T03:43:54.340Z,30.00
2018-10-21T03:46:22.744Z,27.70
2018-10-21T03:48:51.119Z,30.80
2018-10-21T03:51:19.528Z,30.00
2018-10-21T03:53:47.951Z,27.07
2018-10-21T03:56:16.362Z,29.53
2018-10-21T03:58:44.810Z,36.13
2018-10-21T04:01:13.214Z,51.97
2018-10-21T04:03:41.620Z,33.07
2018-10-21T04:06:10.023Z,33.00
2018-10-21T04:08:38.459Z,32.40
2018-10-21T04:11:06.969Z,36.03
2018-10-21T04:13:35.491Z,38.90
2018-10-21T04:16:03.885Z,29.83
2018-10-21T04:18:32.280Z,34.50
2018-10-21T04:21:00.675Z,30.53
2018-10-21T04:23:29.100Z,34.37
2018-10-21T04:25:57.456Z,42.63
2018-10-21T04:28:32.090Z,41.00
2018-10-21T04:31:00.465Z,39.20
2018-10-21T04:33:43.943Z,36.50
2018-10-21T04:36:14.279Z,32.03
2018-10-21T04:38:54.807Z,34.30
2018-10-21T04:41:23.248Z,38.90
2018-10-21T04:43:51.767Z,34.87
2018-10-21T04:46:20.169Z,28.67
2018-10-21T04:48:48.588Z,37.50
2018-10-21T04:51:16.971Z,37.03
2018-10-21T04:53:45.339Z,36.90
2018-10-21T04:56:13.735Z,32.40
2018-10-21T04:58:42.126Z,37.53
2018-10-21T05:01:12.855Z,38.53
2018-10-21T05:03:41.338Z,38.17
2018-10-21T05:06:09.734Z,47.97
2018-10-21T05:08:38.079Z,33.80
2018-10-21T05:11:06.452Z,48.30
2018-10-21T05:13:34.876Z,44.33
2018-10-21T05:16:03.285Z,35.17
2018-10-21T05:18:31.619Z,37.23
2018-10-21T05:21:00.503Z,43.40
2018-10-21T05:23:28.861Z,46.50
2018-10-21T05:25:57.262Z,48.87
2018-10-21T05:28:25.683Z,40.63
2018-10-21T05:30:55.131Z,46.17
2018-10-21T05:33:23.559Z,35.57
2018-10-21T05:35:51.971Z,42.93
2018-10-21T05:38:20.326Z,31.73
2018-10-21T05:40:48.718Z,42.60
2018-10-21T05:43:17.116Z,48.43
2018-10-21T05:45:45.506Z,39.67
2018-10-21T05:48:13.926Z,47.67
2018-10-21T05:50:42.364Z,51.77
2018-10-21T05:53:10.870Z,48.63
2018-10-21T05:55:39.379Z,59.37
2018-10-21T05:58:07.969Z,61.07
2018-10-21T06:00:36.401Z,48.00
2018-10-21T06:03:05.191Z,42.13
2018-10-21T06:05:43.740Z,50.97
2018-10-21T06:08:12.212Z,44.03
2018-10-21T06:10:41.161Z,48.40
2018-10-21T06:13:09.813Z,44.67
2018-10-21T06:15:38.305Z,48.23
2018-10-21T06:18:11.019Z,37.80
2018-10-21T06:20:42.859Z,44.90
2018-10-21T06:23:11.346Z,50.33
2018-10-21T06:25:39.788Z,42.93
2018-10-21T06:28:08.218Z,39.20
2018-10-21T06:30:36.692Z,42.33
2018-10-21T06:33:05.239Z,46.10
2018-10-21T06:35:33.703Z,51.93
2018-10-21T06:38:02.151Z,39.33
2018-10-21T06:40:30.590Z,51.00
2018-10-21T06:42:59.019Z,47.20
2018-10-21T06:45:27.706Z,56.60
2018-10-21T06:47:56.052Z,51.10
2018-10-21T06:50:24.472Z,55.00
2018-10-21T06:52:53.049Z,53.53
2018-10-21T06:55:21.474Z,45.93
2018-10-21T06:57:49.991Z,55.00
2018-10-21T07:00:18.334Z,80.20
2018-10-21T07:02:46.749Z,73.60
2018-10-21T07:05:26.512Z,69.20
2018-10-21T07:07:54.913Z,76.47
2018-10-21T07:10:23.303Z,77.47
2018-10-21T07:12:51.949Z,61.63
2018-10-21T07:15:20.775Z,77.37
2018-10-21T07:17:49.216Z,86.53
2018-10-21T07:20:17.623Z,87.10
2018-10-21T07:22:46.123Z,95.73
2018-10-21T07:25:14.579Z,85.97
2018-10-21T07:27:43.016Z,79.17
2018-10-21T07:30:12.649Z,114.57
2018-10-21T07:32:42.184Z,79.07
2018-10-21T07:35:13.453Z,82.00
2018-10-21T07:37:42.714Z,86.60
2018-10-21T07:40:12.316Z,76.50
2018-10-21T07:42:40.756Z,94.03
2018-10-21T07:45:10.839Z,86.63
2018-10-21T07:47:39.436Z,91.63
2018-10-21T07:50:09.766Z,80.53
2018-10-21T07:52:40.062Z,114.03
2018-10-21T07:55:17.323Z,92.33
2018-10-21T07:57:45.975Z,83.63
2018-10-21T08:02:56.214Z,114.47
2018-10-21T08:05:37.846Z,93.33
2018-10-21T08:08:10.397Z,119.10
2018-10-21T08:10:52.579Z,115.77
2018-10-21T08:13:22.163Z,139.67
2018-10-21T08:15:52.962Z,129.37
2018-10-21T08:18:21.413Z,120.63
2018-10-21T08:20:50.752Z,95.70
2018-10-21T08:23:19.679Z,100.17
2018-10-21T08:25:51.659Z,98.17
2018-10-21T08:28:20.183Z,111.17
2018-10-21T08:30:49.776Z,101.10
2018-10-21T08:33:18.179Z,105.47
2018-10-21T08:35:46.682Z,81.90
2018-10-21T08:38:16.164Z,86.80
2018-10-21T08:40:47.099Z,73.83
2018-10-21T08:43:15.492Z,99.70
2018-10-21T08:45:45.016Z,71.47
2018-10-21T08:48:13.651Z,69.20
2018-10-21T08:50:42.127Z,68.80
2018-10-21T08:55:50.473Z,47.73
2018-10-21T08:58:20.260Z,46.27
2018-10-21T09:00:48.830Z,49.70
2018-10-21T09:03:22.912Z,40.90
2018-10-21T09:05:54.006Z,34.63
2018-10-21T09:08:22.630Z,34.90
2018-10-21T09:10:51.113Z,38.93
2018-10-21T09:13:19.554Z,32.47
2018-10-21T09:15:49.352Z,29.53
2018-10-21T09:18:18.252Z,22.00
2018-10-21T09:20:46.672Z,23.73
2018-10-21T09:23:15.277Z,24.13
2018-10-21T09:25:43.787Z,22.80
2018-10-21T09:28:12.595Z,28.80
2018-10-21T09:30:41.078Z,23.83
2018-10-21T09:33:09.557Z,15.50
2018-10-21T09:35:38.095Z,17.40
2018-10-21T09:38:06.623Z,24.33
2018-10-21T09:40:35.150Z,17.93
2018-10-21T09:43:03.640Z,21.93
2018-10-21T09:45:32.107Z,25.80
2018-10-21T09:48:00.621Z,15.40
2018-10-21T09:50:29.154Z,20.83
2018-10-21T09:52:57.642Z,15.83
2018-10-21T09:55:26.205Z,11.47
2018-10-21T09:57:54.711Z,18.07
2018-10-21T10:00:30.108Z,13.30
2018-10-21T10:03:04.908Z,13.13
2018-10-21T10:05:33.369Z,13.97
2018-10-21T10:08:01.864Z,17.03
2018-10-21T10:10:30.425Z,18.43
2018-10-21T10:12:58.893Z,13.90
2018-10-21T10:15:27.535Z,9.13
2018-10-21T10:17:56.144Z,16.70
2018-10-21T10:20:24.731Z,8.53
2018-10-21T10:22:53.266Z,16.53
2018-10-21T10:25:21.794Z,16.43
2018-10-21T10:27:50.295Z,9.13
2018-10-21T10:30:18.906Z,9.70
2018-10-21T10:32:47.906Z,7.80
2018-10-21T10:35:16.443Z,8.13
2018-10-21T10:37:44.899Z,9.13
2018-10-21T10:40:13.941Z,16.07
2018-10-21T10:42:42.821Z,13.07
2018-10-21T10:45:11.315Z,10.70
2018-10-21T10:47:40.089Z,10.53
2018-10-21T10:50:09.756Z,13.57
2018-10-21T10:52:38.907Z,11.43
2018-10-21T10:55:07.820Z,11.33
2018-10-21T10:57:36.324Z,9.50
2018-10-21T11:00:05.288Z,9.83
2018-10-21T11:02:33.732Z,11.20
2018-10-21T11:05:02.275Z,12.63
2018-10-21T11:07:30.786Z,16.20
2018-10-21T11:09:59.254Z,10.13
2018-10-21T11:12:27.756Z,11.80
2018-10-21T11:14:56.342Z,12.30
2018-10-21T11:17:24.947Z,9.13
2018-10-21T11:19:53.637Z,8.90
2018-10-21T11:22:22.256Z,11.13
2018-10-21T11:24:50.686Z,15.10
2018-10-21T11:27:19.250Z,8.80
2018-10-21T11:29:48.764Z,10.77
2018-10-21T11:32:17.314Z,8.20
2018-10-21T11:34:45.844Z,20.03
2018-10-21T11:37:14.456Z,10.43
2018-10-21T11:39:42.987Z,12.07
2018-10-21T11:42:11.527Z,7.67
2018-10-21T11:44:40.124Z,14.30
2018-10-21T11:47:08.697Z,8.97
2018-10-21T11:49:37.230Z,10.60
2018-10-21T11:52:05.877Z,11.67
2018-10-21T11:54:34.381Z,11.70
2018-10-21T11:57:02.915Z,7.00
2018-10-21T11:59:31.471Z,8.40
2018-10-21T12:01:59.967Z,9.23
2018-10-21T12:04:28.475Z,8.70
2018-10-21T12:06:57.031Z,14.37
2018-10-21T12:09:25.508Z,10.00
2018-10-21T12:11:53.996Z,12.50
2018-10-21T12:14:22.514Z,8.10
2018-10-21T12:16:50.936Z,6.57
2018-10-21T12:19:19.376Z,8.53
2018-10-21T12:21:47.785Z,8.83
2018-10-21T12:24:16.318Z,12.20
2018-10-21T12:26:44.775Z,9.40
2018-10-21T12:29:13.340Z,9.57
2018-10-21T12:31:41.772Z,9.90
2018-10-21T12:34:10.274Z,13.83
2018-10-21T12:36:38.687Z,10.60
2018-10-21T12:39:08.373Z,5.90
2018-10-21T12:41:36.867Z,8.40
2018-10-21T12:44:05.367Z,5.40
2018-10-21T12:46:33.955Z,12.47
2018-10-21T12:49:02.564Z,13.40
2018-10-21T12:51:31.235Z,4.43
2018-10-21T12:53:59.880Z,8.90
2018-10-21T12:56:28.451Z,13.47
2018-10-21T12:58:57.004Z,5.67
2018-10-21T13:01:25.620Z,9.03
2018-10-21T13:03:54.282Z,9.20
2018-10-21T13:06:23.072Z,9.40
2018-10-21T13:08:51.541Z,11.20
2018-10-21T13:11:20.088Z,5.23
2018-10-21T13:13:48.594Z,10.07
2018-10-21T13:16:17.166Z,7.00
2018-10-21T13:18:46.583Z,6.93
2018-10-21T13:21:15.123Z,5.47
2018-10-21T13:23:43.684Z,3.67
2018-10-21T13:26:12.123Z,5.00
2018-10-21T13:28:40.851Z,6.40
2018-10-21T13:31:09.400Z,4.93
2018-10-21T13:33:37.852Z,4.63
2018-10-21T13:36:06.413Z,8.07
2018-10-21T13:38:35.020Z,10.30
2018-10-21T13:41:04.835Z,8.53
2018-10-21T13:43:33.424Z,3.13
2018-10-21T13:46:02.069Z,7.70
2018-10-21T13:48:30.475Z,6.50
2018-10-21T13:50:58.999Z,8.00
2018-10-21T13:53:27.552Z,5.20
2018-10-21T13:55:55.931Z,5.03
2018-10-21T13:58:24.426Z,5.57
2018-10-21T14:00:52.941Z,4.97
2018-10-21T14:03:21.483Z,6.20
2018-10-21T14:05:49.977Z,4.73
2018-10-21T14:08:18.500Z,11.97
2018-10-21T14:10:47.086Z,6.83
2018-10-21T14:13:15.545Z,3.50
2018-10-21T14:15:43.894Z,8.17
2018-10-21T14:18:12.312Z,8.70
2018-10-21T14:20:40.645Z,7.90
2018-10-21T14:23:09.027Z,7.43
2018-10-21T14:25:37.500Z,3.90
2018-10-21T14:28:06.032Z,6.77
2018-10-21T14:30:34.511Z,7.93
2018-10-21T14:33:02.924Z,8.37
2018-10-21T14:35:31.319Z,7.43
2018-10-21T14:37:59.856Z,8.23
2018-10-21T14:40:28.227Z,9.63
2018-10-21T14:42:56.701Z,5.90
2018-10-21T14:45:25.136Z,9.10
2018-10-21T14:47:53.484Z,11.07
2018-10-21T14:50:21.899Z,8.37
2018-10-21T14:52:50.293Z,6.97
2018-10-21T14:55:18.790Z,7.23
2018-10-21T14:57:47.260Z,9.47
2018-10-21T15:00:15.672Z,7.53
2018-10-21T15:02:43.986Z,8.97
2018-10-21T15:05:13.246Z,6.73
2018-10-21T15:07:43.099Z,8.87
2018-10-21T15:10:11.831Z,6.87
2018-10-21T15:12:40.172Z,11.40
2018-10-21T15:15:09.679Z,6.50
2018-10-21T15:17:38.372Z,7.50
2018-10-21T15:20:07.711Z,7.07
2018-10-21T15:22:36.203Z,7.00
2018-10-21T15:25:05.276Z,10.80
2018-10-21T15:27:33.794Z,10.07
2018-10-21T15:30:02.378Z,10.90
2018-10-21T15:32:30.841Z,7.10
2018-10-21T15:34:59.731Z,6.53
2018-10-21T15:37:28.226Z,4.53
2018-10-21T15:39:56.815Z,13.67
2018-10-21T15:42:25.290Z,4.23
2018-10-21T15:44:53.719Z,3.43
2018-10-21T15:47:22.203Z,6.63
2018-10-21T15:49:50.657Z,3.00
2018-10-21T15:52:19.153Z,13.00
2018-10-21T15:54:47.634Z,4.33
2018-10-21T15:57:16.107Z,5.90
2018-10-21T15:59:44.865Z,6.83
2018-10-21T16:02:13.396Z,9.33
2018-10-21T16:04:41.745Z,6.33
2018-10-21T16:07:10.247Z,4.90
2018-10-21T16:09:39.718Z,4.50
2018-10-21T16:12:08.191Z,9.60
2018-10-21T16:14:36.747Z,9.10
2018-10-21T16:17:05.358Z,6.97
2018-10-21T16:19:33.785Z,5.00
2018-10-21T16:22:02.458Z,3.40
2018-10-21T16:24:30.877Z,12.73
2018-10-21T16:26:59.355Z,18.03
2018-10-21T16:29:27.795Z,8.67
2018-10-21T16:31:56.296Z,4.97
2018-10-21T16:34:24.747Z,10.40
2018-10-21T16:36:53.163Z,6.53
2018-10-21T16:39:21.645Z,5.17
2018-10-21T16:41:50.081Z,4.97
2018-10-21T16:44:18.523Z,8.63
2018-10-21T16:46:47.143Z,13.87
2018-10-21T16:49:15.735Z,4.97
2018-10-21T16:51:44.250Z,17.57
2018-10-21T16:54:12.812Z,7.93
2018-10-21T16:56:41.334Z,5.20
2018-10-21T16:59:09.901Z,12.83
2018-10-21T17:01:38.290Z,12.73
2018-10-21T17:04:06.819Z,7.40
2018-10-21T17:06:35.415Z,5.53
2018-10-21T17:09:05.137Z,10.70
2018-10-21T17:11:33.464Z,7.77
2018-10-21T17:14:01.875Z,6.50
2018-10-21T17:16:30.283Z,10.67
2018-10-21T17:18:58.860Z,8.97
2018-10-21T17:21:27.443Z,13.17
2018-10-21T17:23:55.954Z,8.47
2018-10-21T17:26:24.427Z,10.17
2018-10-21T17:28:53.026Z,15.73
2018-10-21T17:31:21.443Z,13.70
2018-10-21T17:33:49.955Z,5.77
2018-10-21T17:36:18.428Z,9.77
2018-10-21T17:38:46.918Z,16.90
2018-10-21T17:41:15.312Z,8.73
2018-10-21T17:43:43.717Z,11.23
2018-10-21T17:46:12.350Z,8.80
2018-10-21T17:48:40.659Z,8.23
2018-10-21T17:51:08.974Z,6.27
2018-10-21T17:53:37.380Z,9.17
2018-10-21T17:56:05.969Z,8.43
2018-10-21T17:58:34.625Z,8.47
2018-10-21T18:01:03.111Z,10.70
2018-10-21T18:03:31.572Z,7.03
2018-10-21T18:05:59.899Z,10.43
2018-10-21T18:08:28.311Z,8.07
2018-10-21T18:10:56.690Z,8.67
2018-10-21T18:13:25.129Z,12.90
2018-10-21T18:15:53.523Z,34.40
2018-10-21T18:18:21.906Z,15.60
2018-10-21T18:20:50.269Z,24.83
2018-10-21T18:23:18.740Z,17.13
2018-10-21T18:25:47.376Z,7.67
2018-10-21T18:28:16.018Z,7.10
2018-10-21T18:30:44.357Z,7.37
2018-10-21T18:33:12.797Z,5.67
2018-10-21T18:35:41.175Z,7.90
2018-10-21T18:38:09.764Z,11.70
2018-10-21T18:40:38.247Z,9.20
2018-10-21T18:43:06.744Z,5.63
2018-10-21T18:45:35.249Z,7.40
2018-10-21T18:48:03.712Z,7.37
2018-10-21T18:50:32.320Z,8.73
2018-10-21T18:53:00.687Z,8.97
2018-10-21T18:55:29.094Z,8.30
2018-10-21T18:57:57.613Z,6.90
2018-10-21T19:00:26.195Z,13.90
2018-10-21T19:02:54.551Z,8.03
2018-10-21T19:05:23.052Z,13.60
2018-10-21T19:07:51.690Z,11.43
2018-10-21T19:10:20.203Z,7.87
2018-10-21T19:12:59.572Z,8.10
2018-10-21T19:15:17.132Z,7.00
2018-10-21T19:17:45.611Z,9.43
2018-10-21T19:20:15.276Z,10.70
2018-10-21T19:22:43.900Z,9.97
2018-10-21T19:25:13.656Z,6.80
2018-10-21T19:27:42.527Z,7.70
2018-10-21T19:30:12.306Z,6.47
2018-10-21T19:32:41.163Z,9.60
2018-10-21T19:35:10.911Z,7.07
2018-10-21T19:37:39.660Z,7.97
2018-10-21T19:40:09.678Z,11.43
2018-10-21T19:42:38.049Z,6.27
2018-10-21T19:45:07.248Z,12.80
2018-10-21T19:47:35.731Z,8.37
2018-10-21T19:50:04.272Z,10.03
2018-10-21T19:52:32.666Z,7.77
2018-10-21T19:55:01.090Z,13.10
2018-10-21T19:57:29.721Z,9.63
2018-10-21T19:59:58.302Z,9.80
2018-10-21T20:02:26.796Z,8.60
2018-10-21T20:04:55.247Z,11.60
2018-10-21T20:07:23.807Z,10.47
2018-10-21T20:09:52.177Z,9.63
2018-10-21T20:12:20.988Z,15.37
2018-10-21T20:14:49.364Z,13.93
2018-10-21T20:17:17.875Z,15.00
2018-10-21T20:19:47.232Z,17.93
2018-10-21T20:22:15.825Z,14.40
2018-10-21T20:24:44.258Z,8.80
2018-10-21T20:27:12.678Z,9.23
2018-10-21T20:29:41.107Z,9.60
2018-10-21T20:32:09.574Z,6.83
2018-10-21T20:34:38.069Z,12.30
2018-10-21T20:37:06.489Z,11.33
2018-10-21T20:39:34.982Z,11.30
2018-10-21T20:42:03.574Z,11.27
2018-10-21T20:44:32.082Z,9.70
2018-10-21T20:47:00.558Z,11.70
2018-10-21T20:49:28.991Z,10.53
2018-10-21T20:51:57.531Z,18.97
2018-10-21T20:54:31.996Z,9.87
2018-10-21T20:57:04.685Z,14.20
2018-10-21T20:59:33.270Z,10.63
2018-10-21T21:02:01.804Z,17.43
2018-10-21T21:04:30.188Z,8.90
2018-10-21T21:06:58.845Z,15.17
2018-10-21T21:09:27.351Z,8.27
2018-10-21T21:11:55.779Z,8.40
2018-10-21T21:14:24.346Z,13.63
2018-10-21T21:16:52.799Z,9.80
2018-10-21T21:19:21.304Z,11.03
2018-10-21T21:21:49.935Z,19.90
2018-10-21T21:24:18.518Z,12.27
2018-10-21T21:26:47.358Z,9.43
2018-10-21T21:29:15.916Z,10.07
2018-10-21T21:31:45.135Z,9.57
2018-10-21T21:34:13.947Z,9.90
2018-10-21T21:36:42.451Z,16.03
2018-10-21T21:39:12.728Z,12.70
2018-10-21T21:41:42.239Z,11.83
2018-10-21T21:44:10.768Z,8.50
2018-10-21T21:46:40.003Z,8.80
2018-10-21T21:49:09.403Z,12.13
2018-10-21T21:51:38.065Z,11.63
2018-10-21T21:54:07.246Z,13.10
2018-10-21T21:56:35.704Z,18.40
2018-10-21T21:59:04.147Z,10.70
2018-10-21T22:01:32.641Z,10.87
2018-10-21T22:04:01.133Z,23.53
2018-10-21T22:06:29.611Z,15.90
2018-10-21T22:08:58.227Z,20.73
2018-10-21T22:11:26.698Z,13.43
2018-10-21T22:13:55.111Z,14.30
2018-10-21T22:16:23.538Z,13.40
2018-10-21T22:18:52.097Z,18.30
2018-10-21T22:21:20.474Z,17.07
2018-10-21T22:23:48.887Z,14.60
2018-10-21T22:26:17.369Z,18.57
2018-10-21T22:28:45.816Z,21.13
2018-10-21T22:31:14.299Z,11.43
2018-10-21T22:33:42.759Z,15.50
2018-10-21T22:36:11.214Z,16.97
2018-10-21T22:38:39.538Z,13.43
2018-10-21T22:41:08.039Z,20.60
2018-10-21T22:43:36.555Z,10.80
2018-10-21T22:46:05.170Z,20.23
2018-10-21T22:48:33.777Z,14.23
2018-10-21T22:51:02.201Z,11.60
2018-10-21T22:53:30.793Z,11.93
2018-10-21T22:55:59.267Z,11.47
2018-10-21T22:58:27.677Z,13.30
2018-10-21T23:00:56.136Z,9.30
2018-10-21T23:03:24.638Z,9.63
2018-10-21T23:05:53.058Z,9.03
2018-10-21T23:08:21.575Z,11.80
2018-10-21T23:10:49.955Z,12.67
2018-10-21T23:13:18.319Z,16.33
2018-10-21T23:15:46.746Z,8.60
2018-10-21T23:18:15.246Z,9.70
2018-10-21T23:20:43.583Z,12.73
2018-10-21T23:23:12.000Z,9.93
2018-10-21T23:25:40.485Z,14.10
2018-10-21T23:28:09.038Z,12.20
2018-10-21T23:30:37.376Z,12.03
2018-10-21T23:33:05.812Z,16.27
2018-10-21T23:35:34.235Z,12.70
2018-10-21T23:38:02.677Z,8.10
2018-10-21T23:40:31.328Z,10.80
2018-10-21T23:42:59.765Z,11.40
2018-10-21T23:45:28.103Z,17.23
2018-10-21T23:47:56.456Z,9.87
2018-10-21T23:50:24.819Z,10.20
2018-10-21T23:52:53.179Z,14.40
2018-10-21T23:55:21.723Z,6.77
2018-10-21T23:57:50.083Z,7.83
